createdAt,value
2023-05-21T00:01:42.765Z,9.75
2023-05-21T00:05:50.014Z,8.43
2023-05-21T00:09:52.921Z,11.35
2023-05-21T00:13:55.091Z,7.57
2023-05-21T00:17:57.184Z,9.82
2023-05-21T00:22:02.230Z,9.50
2023-05-21T00:26:04.354Z,8.88
2023-05-21T00:30:07.191Z,10.77
2023-05-21T00:34:09.228Z,11.07
2023-05-21T00:38:11.261Z,8.32
2023-05-21T00:42:18.075Z,8.13
2023-05-21T00:46:21.307Z,8.68
2023-05-21T00:50:23.646Z,12.18
2023-05-21T00:54:25.939Z,7.90
2023-05-21T00:58:29.223Z,13.35
2023-05-21T01:02:34.839Z,12.80
2023-05-21T01:06:37.765Z,11.70
2023-05-21T01:10:39.814Z,13.43
2023-05-21T01:14:42.584Z,12.55
2023-05-21T01:18:45.331Z,14.25
2023-05-21T01:22:55.293Z,9.40
2023-05-21T01:27:01.115Z,10.30
2023-05-21T01:31:16.810Z,12.48
2023-05-21T01:35:27.800Z,13.48
2023-05-21T01:39:37.547Z,14.40
2023-05-21T01:43:42.571Z,10.48
2023-05-21T01:47:50.141Z,15.93
2023-05-21T01:51:52.417Z,24.38
2023-05-21T01:55:54.696Z,14.27
2023-05-21T01:59:57.883Z,16.65
2023-05-21T02:04:00.244Z,13.02
2023-05-21T02:08:02.452Z,11.15
2023-05-21T02:12:04.767Z,14.82
2023-05-21T02:16:10.184Z,16.02
2023-05-21T02:20:13.869Z,13.25
2023-05-21T02:24:16.750Z,15.63
2023-05-21T02:28:18.849Z,15.52
2023-05-21T02:32:21.657Z,17.63
2023-05-21T02:36:25.320Z,17.15
2023-05-21T02:40:27.602Z,18.52
2023-05-21T02:44:30.060Z,19.67
2023-05-21T02:48:32.297Z,19.65
2023-05-21T02:52:34.703Z,21.50
2023-05-21T02:56:36.916Z,21.90
2023-05-21T03:00:39.256Z,23.65
2023-05-21T03:04:46.368Z,17.77
2023-05-21T03:08:48.791Z,18.67
2023-05-21T03:12:51.006Z,15.82
2023-05-21T03:16:53.331Z,13.45
2023-05-21T03:20:55.640Z,17.70
2023-05-21T03:24:58.252Z,13.85
2023-05-21T03:29:01.514Z,17.27
2023-05-21T03:33:04.991Z,15.27
2023-05-21T03:37:06.804Z,17.88
2023-05-21T03:41:10.804Z,17.20
2023-05-21T03:45:13.608Z,13.05
2023-05-21T03:49:21.251Z,12.75
2023-05-21T03:53:27.017Z,16.73
2023-05-21T03:57:29.359Z,13.88
2023-05-21T04:01:33.009Z,12.65
2023-05-21T04:05:35.446Z,13.50
2023-05-21T04:09:37.693Z,15.10
2023-05-21T04:13:39.840Z,10.52
2023-05-21T04:17:41.913Z,12.57
2023-05-21T04:21:45.047Z,9.65
2023-05-21T04:25:51.023Z,10.15
2023-05-21T04:29:58.032Z,9.93
2023-05-21T04:34:00.286Z,7.05
2023-05-21T04:38:04.095Z,8.07
2023-05-21T04:42:07.020Z,5.57
2023-05-21T04:46:09.112Z,7.47
2023-05-21T04:50:11.977Z,5.97
2023-05-21T04:54:14.068Z,6.68
2023-05-21T04:58:18.342Z,7.47
2023-05-21T05:02:21.355Z,15.13
2023-05-21T05:06:25.809Z,6.07
2023-05-21T05:10:27.830Z,7.07
2023-05-21T05:14:31.122Z,4.32
2023-05-21T05:18:34.364Z,8.98
2023-05-21T05:22:36.778Z,7.38
2023-05-21T05:26:38.864Z,4.85
2023-05-21T05:30:41.057Z,4.43
2023-05-21T05:34:53.404Z,4.95
2023-05-21T05:38:55.754Z,7.20
2023-05-21T05:42:57.908Z,3.85
2023-05-21T05:47:00.168Z,4.45
2023-05-21T05:51:03.257Z,4.97
2023-05-21T05:55:08.947Z,7.07
2023-05-21T05:59:11.223Z,15.07
2023-05-21T06:03:14.586Z,3.63
2023-05-21T06:07:17.868Z,4.47
2023-05-21T06:11:20.043Z,6.15
2023-05-21T06:15:22.346Z,6.95
2023-05-21T06:19:24.579Z,6.22
2023-05-21T06:23:27.254Z,5.60
2023-05-21T06:27:30.740Z,5.90
2023-05-21T06:31:34.292Z,4.50
2023-05-21T06:35:37.491Z,4.57
2023-05-21T06:39:39.985Z,4.80
2023-05-21T06:43:42.083Z,5.03
2023-05-21T06:48:02.779Z,7.25
2023-05-21T06:52:05.515Z,5.72
2023-05-21T06:56:08.283Z,9.98
2023-05-21T07:00:12.511Z,5.05
2023-05-21T07:04:16.047Z,4.68
2023-05-21T07:08:22.709Z,5.13
2023-05-21T07:12:25.446Z,4.80
2023-05-21T07:16:27.609Z,2.35
2023-05-21T07:20:30.020Z,5.47
2023-05-21T07:24:35.338Z,2.47
2023-05-21T07:28:37.542Z,10.63
2023-05-21T07:32:40.059Z,2.95
2023-05-21T07:36:41.809Z,5.70
2023-05-21T07:40:44.273Z,6.82
2023-05-21T07:44:47.417Z,5.50
2023-05-21T07:48:50.119Z,5.32
2023-05-21T07:52:52.234Z,3.25
2023-05-21T07:56:55.442Z,4.82
2023-05-21T08:01:20.134Z,10.32
2023-05-21T08:05:24.380Z,4.47
2023-05-21T08:09:26.750Z,4.38
2023-05-21T08:13:29.001Z,6.70
2023-05-21T08:17:31.942Z,5.35
2023-05-21T08:21:34.599Z,7.03
2023-05-21T08:25:37.099Z,4.22
2023-05-21T08:29:40.400Z,3.90
2023-05-21T08:33:51.588Z,5.30
2023-05-21T08:37:56.832Z,5.22
2023-05-21T08:42:39.505Z,7.82
2023-05-21T08:46:45.501Z,3.00
2023-05-21T08:50:48.027Z,2.42
2023-05-21T08:54:56.823Z,5.13
2023-05-21T08:58:59.553Z,5.43
2023-05-21T09:03:10.497Z,5.68
2023-05-21T09:07:15.669Z,3.55
2023-05-21T09:11:37.282Z,4.43
2023-05-21T09:15:39.845Z,4.15
2023-05-21T09:20:09.664Z,3.95
2023-05-21T09:24:12.421Z,4.22
2023-05-21T09:28:17.093Z,2.63
2023-05-21T09:32:19.259Z,4.93
2023-05-21T09:36:21.999Z,7.38
2023-05-21T09:40:24.725Z,8.85
2023-05-21T09:44:27.084Z,4.90
2023-05-21T09:48:36.552Z,12.95
2023-05-21T09:52:42.142Z,4.05
2023-05-21T09:56:44.552Z,3.88
2023-05-21T10:00:46.821Z,5.07
2023-05-21T10:04:50.538Z,5.97
2023-05-21T10:08:56.747Z,5.72
2023-05-21T10:13:01.395Z,2.10
2023-05-21T10:17:06.354Z,9.50
2023-05-21T10:21:08.850Z,4.20
2023-05-21T10:25:14.329Z,5.03
2023-05-21T10:29:19.636Z,6.70
2023-05-21T10:33:24.970Z,4.65
2023-05-21T10:37:27.650Z,5.05
2023-05-21T10:41:41.171Z,5.03
2023-05-21T10:46:00.273Z,4.50
2023-05-21T10:50:31.170Z,7.50
2023-05-21T10:54:52.953Z,3.67
2023-05-21T10:59:15.391Z,10.73
2023-05-21T11:03:17.751Z,6.18
2023-05-21T11:07:57.284Z,4.90
2023-05-21T11:12:00.985Z,3.70
2023-05-21T11:16:08.129Z,5.88
2023-05-21T11:20:13.760Z,6.05
2023-05-21T11:24:20.155Z,4.28
2023-05-21T11:28:34.247Z,8.57
2023-05-21T11:32:40.518Z,6.50
2023-05-21T11:36:50.149Z,4.93
2023-05-21T11:40:56.365Z,2.65
2023-05-21T11:45:00.231Z,6.22
2023-05-21T11:49:03.822Z,4.45
2023-05-21T11:53:07.638Z,5.00
2023-05-21T11:57:10.563Z,5.28
2023-05-21T12:01:24.527Z,3.30
2023-05-21T12:05:27.196Z,3.80
2023-05-21T12:09:29.493Z,6.18
2023-05-21T12:13:32.101Z,4.82
2023-05-21T12:17:34.316Z,6.85
2023-05-21T12:21:36.544Z,2.60
2023-05-21T12:25:38.885Z,5.45
2023-05-21T12:29:46.097Z,3.92
2023-05-21T12:33:50.118Z,5.78
2023-05-21T12:37:52.512Z,5.78
2023-05-21T12:41:55.010Z,5.85
2023-05-21T12:45:57.254Z,4.05
2023-05-21T12:50:01.907Z,4.35
2023-05-21T12:54:04.368Z,2.60
2023-05-21T12:58:09.107Z,2.60
2023-05-21T13:02:16.228Z,4.10
2023-05-21T13:06:18.555Z,3.85
2023-05-21T13:10:21.604Z,6.22
2023-05-21T13:14:23.676Z,5.97
2023-05-21T13:18:26.265Z,5.95
2023-05-21T13:22:28.455Z,5.13
2023-05-21T13:26:30.476Z,4.95
2023-05-21T13:30:35.917Z,4.57
2023-05-21T13:34:38.056Z,3.50
2023-05-21T13:38:40.197Z,5.90
2023-05-21T13:42:44.072Z,2.40
2023-05-21T13:46:46.365Z,6.40
2023-05-21T13:50:48.613Z,6.50
2023-05-21T13:54:50.955Z,3.35
2023-05-21T13:58:52.994Z,4.35
2023-05-21T14:02:55.416Z,5.45
2023-05-21T14:06:57.716Z,4.28
2023-05-21T14:11:00.338Z,5.25
2023-05-21T14:15:03.124Z,3.38
2023-05-21T14:19:05.892Z,1.88
2023-05-21T14:23:09.420Z,4.65
2023-05-21T14:27:13.894Z,6.38
2023-05-21T14:31:17.280Z,2.80
2023-05-21T14:35:19.402Z,5.25
2023-05-21T14:39:21.530Z,3.90
2023-05-21T14:43:23.844Z,3.33
2023-05-21T14:47:26.117Z,2.58
2023-05-21T14:51:28.351Z,3.58
2023-05-21T14:55:30.857Z,6.28
2023-05-21T14:59:33.056Z,3.80
2023-05-21T15:03:35.263Z,4.32
2023-05-21T15:07:37.725Z,5.32
2023-05-21T15:11:40.178Z,2.97
2023-05-21T15:15:42.682Z,2.75
2023-05-21T15:19:44.905Z,4.80
2023-05-21T15:23:47.006Z,4.68
2023-05-21T15:27:50.575Z,4.05
2023-05-21T15:31:52.953Z,7.88
2023-05-21T15:35:55.122Z,3.63
2023-05-21T15:39:57.323Z,13.75
2023-05-21T15:43:59.547Z,2.45
2023-05-21T15:48:01.655Z,4.30
2023-05-21T15:52:03.978Z,4.43
2023-05-21T15:56:06.452Z,4.68
2023-05-21T16:00:09.950Z,4.97
2023-05-21T16:04:12.347Z,4.20
2023-05-21T16:08:14.736Z,3.17
2023-05-21T16:12:17.158Z,3.78
2023-05-21T16:16:21.762Z,2.65
2023-05-21T16:20:25.235Z,4.70
2023-05-21T16:24:27.489Z,8.23
2023-05-21T16:28:30.339Z,5.57
2023-05-21T16:32:33.056Z,3.17
2023-05-21T16:36:37.434Z,5.78
2023-05-21T16:40:40.402Z,3.20
2023-05-21T16:44:42.524Z,3.85
2023-05-21T16:48:44.667Z,5.40
2023-05-21T16:52:46.914Z,8.00
2023-05-21T16:56:49.076Z,3.42
2023-05-21T17:00:51.343Z,4.80
2023-05-21T17:04:53.675Z,4.85
2023-05-21T17:08:56.036Z,7.88
2023-05-21T17:12:59.957Z,3.80
2023-05-21T17:17:06.888Z,3.50
2023-05-21T17:21:09.618Z,10.30
2023-05-21T17:25:11.927Z,5.53
2023-05-21T17:29:14.029Z,4.05
2023-05-21T17:33:16.226Z,4.65
2023-05-21T17:37:18.383Z,6.97
2023-05-21T17:41:21.781Z,5.07
2023-05-21T17:45:23.826Z,6.07
2023-05-21T17:49:25.979Z,4.25
2023-05-21T17:53:28.161Z,6.70
2023-05-21T17:57:30.249Z,4.93
2023-05-21T18:01:33.683Z,7.60
2023-05-21T18:05:36.330Z,8.10
2023-05-21T18:09:39.228Z,8.73
2023-05-21T18:13:41.346Z,9.38
2023-05-21T18:17:43.810Z,9.52
2023-05-21T18:21:48.889Z,11.23
2023-05-21T18:25:50.997Z,10.98
2023-05-21T18:29:53.193Z,8.70
2023-05-21T18:33:55.350Z,8.45
2023-05-21T18:37:57.987Z,10.18
2023-05-21T18:42:12.252Z,12.23
2023-05-21T18:46:16.007Z,8.13
2023-05-21T18:50:19.446Z,10.07
2023-05-21T18:54:21.625Z,7.72
2023-05-21T18:58:23.743Z,8.15
2023-05-21T19:02:26.988Z,10.10
2023-05-21T19:06:29.105Z,7.30
2023-05-21T19:10:32.548Z,10.88
2023-05-21T19:14:35.123Z,8.90
2023-05-21T19:18:37.271Z,4.97
2023-05-21T19:22:39.528Z,7.38
2023-05-21T19:26:41.628Z,12.35
2023-05-21T19:30:44.263Z,7.88
2023-05-21T19:34:46.808Z,6.22
2023-05-21T19:38:50.011Z,10.38
2023-05-21T19:42:52.198Z,9.27
2023-05-21T19:46:54.505Z,11.40
2023-05-21T19:50:57.151Z,7.22
2023-05-21T19:55:04.612Z,6.13
2023-05-21T19:59:06.907Z,7.78
2023-05-21T20:03:09.818Z,7.40
2023-05-21T20:07:13.571Z,17.02
2023-05-21T20:11:15.790Z,10.80
2023-05-21T20:15:18.388Z,12.00
2023-05-21T20:19:22.895Z,12.70
2023-05-21T20:23:25.079Z,20.63
2023-05-21T20:27:27.978Z,21.50
2023-05-21T20:31:30.426Z,24.58
2023-05-21T20:35:32.523Z,28.60
2023-05-21T20:39:37.220Z,36.63
2023-05-21T20:43:39.592Z,37.33
2023-05-21T20:47:42.701Z,37.08
2023-05-21T20:51:45.069Z,38.22
2023-05-21T20:55:47.350Z,32.67
2023-05-21T20:59:52.213Z,18.70
2023-05-21T21:03:54.340Z,17.67
2023-05-21T21:07:56.435Z,17.63
2023-05-21T21:12:06.309Z,18.65
2023-05-21T21:16:11.370Z,11.93
2023-05-21T21:20:13.788Z,12.52
2023-05-21T21:24:15.946Z,16.60
2023-05-21T21:28:18.859Z,11.52
2023-05-21T21:32:21.131Z,11.80
2023-05-21T21:36:24.408Z,9.82
2023-05-21T21:40:27.355Z,19.58
2023-05-21T21:44:29.499Z,11.00
2023-05-21T21:48:31.664Z,12.50
2023-05-21T21:52:33.681Z,12.18
2023-05-21T21:56:36.111Z,11.98
2023-05-21T22:00:38.234Z,15.35
2023-05-21T22:04:40.571Z,14.77
2023-05-21T22:08:42.772Z,10.25
2023-05-21T22:12:46.107Z,12.73
2023-05-21T22:16:48.458Z,12.82
2023-05-21T22:20:51.378Z,13.43
2023-05-21T22:24:53.729Z,12.00
2023-05-21T22:28:56.348Z,12.88
2023-05-21T22:32:58.455Z,10.90
2023-05-21T22:37:01.156Z,11.02
2023-05-21T22:41:03.703Z,12.27
2023-05-21T22:45:06.758Z,15.45
2023-05-21T22:49:10.232Z,12.27
2023-05-21T22:53:12.972Z,11.95
2023-05-21T22:57:15.432Z,11.00
2023-05-21T23:01:17.539Z,10.60
2023-05-21T23:05:19.850Z,11.18
2023-05-21T23:09:21.968Z,18.50
2023-05-21T23:13:23.992Z,12.20
2023-05-21T23:17:26.390Z,15.30
2023-05-21T23:21:28.645Z,12.85
2023-05-21T23:25:30.846Z,14.32
2023-05-21T23:29:32.927Z,11.38
2023-05-21T23:33:34.917Z,10.63
2023-05-21T23:37:37.110Z,10.20
2023-05-21T23:41:39.313Z,10.52
2023-05-21T23:45:41.698Z,13.60
2023-05-21T23:49:43.739Z,12.27
2023-05-21T23:53:45.979Z,12.15
2023-05-21T23:57:48.006Z,17.08
